KMOT/MOT METAR and TAF weather

Enter ICAO airport designator
Station Type Date Time Source
KMOT METAR 2018/12/18 19:54 UTC NOAA

KMOT 181954Z 21008KT 10SM CLR 10/M02 A2969 RMK AO2 SLP067 T01001017


Station Type Date Time Source
KMOT Decoded METAR 2018/12/18 19:54 UTC NOAA

MINOT INTERNATIONAL AIRPORT , ND, United States (KMOT) 48-16N 101-17W 519M
Dec 18, 2018 - 02:54 PM EST / 2018.12.18 1954 UTC
Wind: from the SSW (210 degrees) at 9 MPH (8 KT):0
Visibility: 10 mile(s):0
Sky conditions: clear
Temperature: 50.0 F (10.0 C)
Dew Point: 28.9 F (-1.7 C)
Relative Humidity: 43%
Pressure (altimeter): 29.69 in. Hg (1005 hPa)
ob: KMOT 181954Z 21008KT 10SM CLR 10/M02 A2969 RMK AO2 SLP067 T01001017
cycle: 20

Station Type Date Time Source
KMOT TAF 2018/12/18 18:33 UTC NOAA

TAF KMOT 181730Z 1818/1918 24009KT P6SM SCT200
FM190000 19006KT P6SM SCT230
FM190800 25009KT P6SM BKN100 WS020/28040KT
FM191300 27013KT P6SM BKN180


Example: see airport list